Time;durP1;ratioP1;P1;durP2;ratioP2;P2;SDS_P1;SDS_P2;PMS_P1;PMS_P2;Temp;Humidity;BMP_temperature;BMP_pressure;BME280_temperature;BME280_humidity;BME280_pressure;Samples;Min_cycle;Max_cycle;Signal;HPM_P1;HPM_P2
2023/08/31 00:00:36;;;;;;;2.67;2.03;;;;;;;21.22;66.38;65218.19;5050473;28;20258;-55
2023/08/31 00:03:02;;;;;;;2.45;2.17;;;;;;;21.20;67.26;65213.41;5050267;28;20227;-55
2023/08/31 00:05:28;;;;;;;4.00;1.88;;;;;;;21.28;68.42;65224.25;5032377;28;20222;-58
2023/08/31 00:07:55;;;;;;;5.78;2.03;;;;;;;21.30;68.29;65226.47;5050273;28;20205;-54
2023/08/31 00:10:21;;;;;;;3.47;2.17;;;;;;;21.21;65.56;65216.53;5050235;28;20242;-53
2023/08/31 00:12:47;;;;;;;3.95;1.98;;;;;;;21.12;67.20;65207.13;5050204;28;20204;-53
2023/08/31 00:15:13;;;;;;;3.80;2.40;;;;;;;21.06;67.62;65200.50;5050545;28;20613;-57
2023/08/31 00:17:39;;;;;;;2.97;1.88;;;;;;;21.15;65.80;65207.34;5050491;28;20293;-55
2023/08/31 00:20:07;;;;;;;3.45;2.00;;;;;;;21.11;66.58;65208.56;5050107;28;20284;-53
2023/08/31 00:22:33;;;;;;;2.92;1.88;;;;;;;21.14;67.45;65209.34;5050033;28;20217;-55
2023/08/31 00:24:58;;;;;;;3.42;1.95;;;;;;;21.26;67.05;65222.06;5050256;28;20261;-54
2023/08/31 00:27:24;;;;;;;6.47;2.13;;;;;;;21.30;68.23;65224.47;5049977;28;20217;-55
2023/08/31 00:29:50;;;;;;;4.70;2.30;;;;;;;21.24;68.29;65220.41;5032094;28;20200;-54
2023/08/31 00:32:22;;;;;;;6.22;2.50;;;;;;;21.03;69.97;65194.59;5048639;28;20597;-56
2023/08/31 00:34:47;;;;;;;4.63;2.60;;;;;;;20.86;70.81;65178.91;5049829;28;20278;-58
2023/08/31 00:37:13;;;;;;;5.68;2.25;;;;;;;20.74;72.15;65167.66;5049790;28;20736;-55
2023/08/31 00:39:39;;;;;;;3.60;2.20;;;;;;;20.63;73.14;65152.94;5050326;28;20224;-54
2023/08/31 00:42:04;;;;;;;3.40;2.08;;;;;;;20.51;74.69;65139.66;5049897;28;20686;-54
2023/08/31 00:44:30;;;;;;;4.95;2.60;;;;;;;20.57;74.04;65144.28;5050041;28;20258;-53
2023/08/31 00:46:56;;;;;;;3.50;1.90;;;;;;;20.69;74.62;65157.00;5049511;28;20278;-55
2023/08/31 00:49:21;;;;;;;4.00;2.10;;;;;;;20.65;74.51;65152.56;5049597;28;20209;-55
2023/08/31 00:51:50;;;;;;;5.25;2.35;;;;;;;20.55;74.22;65146.66;5049828;28;20296;-60
2023/08/31 00:54:17;;;;;;;4.35;2.30;;;;;;;20.42;74.53;65132.28;5049751;28;20211;-54
2023/08/31 00:56:43;;;;;;;6.57;2.60;;;;;;;20.46;76.07;65134.16;5049852;28;20215;-57
2023/08/31 00:59:08;;;;;;;6.20;2.30;;;;;;;20.41;75.45;65129.16;5049584;28;20583;-54
2023/08/31 01:01:46;;;;;;;4.45;2.53;;;;;;;20.36;75.52;65126.19;5049530;28;20650;-57
2023/08/31 01:04:30;;;;;;;4.50;2.25;;;;;;;20.48;76.55;65136.91;5031862;28;20197;-55
2023/08/31 01:07:30;;;;;;;5.70;1.65;;;;;;;20.50;75.50;65138.56;5049406;28;20209;-54
2023/08/31 01:10:30;;;;;;;4.93;2.15;;;;;;;20.35;77.15;65121.97;5049578;28;20215;-54
2023/08/31 01:13:19;;;;;;;2.75;2.13;;;;;;;20.49;76.97;65137.44;5017324;28;20331;-53
2023/08/31 01:15:49;;;;;;;5.63;2.13;;;;;;;20.46;75.55;65131.59;5049452;28;20242;-54
2023/08/31 01:18:17;;;;;;;5.30;2.45;;;;;;;20.29;76.38;65115.91;5049320;28;20270;-55
2023/08/31 01:21:02;;;;;;;4.47;1.90;;;;;;;20.21;77.54;65107.06;5049465;28;20186;-55
2023/08/31 01:23:51;;;;;;;3.90;2.10;;;;;;;20.24;77.04;65112.41;5049034;28;20291;-56
2023/08/31 01:26:24;;;;;;;7.40;2.30;;;;;;;20.21;77.80;65106.50;5047636;28;20267;-59
2023/08/31 01:28:50;;;;;;;4.50;2.28;;;;;;;20.29;78.55;65115.91;5048102;28;20296;-54
2023/08/31 01:31:17;;;;;;;6.25;2.28;;;;;;;20.47;77.22;65137.81;5030351;28;20213;-55
2023/08/31 01:33:43;;;;;;;3.92;2.30;;;;;;;20.52;77.52;65143.34;5048970;28;20201;-54
2023/08/31 01:36:18;;;;;;;5.03;2.40;;;;;;;20.64;78.27;65154.03;5049117;28;20247;-55
2023/08/31 01:38:49;;;;;;;3.55;2.10;;;;;;;20.38;79.52;65125.31;5048198;28;20196;-54
2023/08/31 01:41:19;;;;;;;5.03;2.45;;;;;;;20.27;80.46;65113.16;5049273;28;20228;-55
2023/08/31 01:43:47;;;;;;;6.05;2.50;;;;;;;20.17;80.92;65105.19;5047634;28;20216;-55
2023/08/31 01:46:12;;;;;;;4.38;2.25;;;;;;;19.98;82.04;65081.63;5048912;28;20291;-55
2023/08/31 01:48:41;;;;;;;7.45;2.28;;;;;;;20.22;79.47;65107.63;5049215;28;20235;-55
2023/08/31 01:51:10;;;;;;;5.28;2.53;;;;;;;20.03;79.09;65087.72;5048998;28;20217;-54
2023/08/31 01:53:35;;;;;;;4.13;2.38;;;;;;;19.67;81.75;65044.84;5049092;28;20201;-55
2023/08/31 01:56:02;;;;;;;5.50;2.45;;;;;;;19.65;80.63;65045.19;5048993;28;20594;-55
2023/08/31 01:58:27;;;;;;;4.97;2.30;;;;;;;19.66;80.25;65049.41;5049822;28;20280;-56
2023/08/31 02:00:53;;;;;;;5.35;2.05;;;;;;;19.52;82.21;65028.84;5052539;28;20364;-54
2023/08/31 02:03:18;;;;;;;5.82;2.22;;;;;;;19.55;83.13;65034.72;5051904;28;20197;-53
2023/08/31 02:05:44;;;;;;;6.05;1.83;;;;;;;19.69;81.53;65050.19;5052122;28;20779;-55
2023/08/31 02:08:09;;;;;;;4.05;2.13;;;;;;;19.58;82.46;65038.03;5052040;28;20266;-54
2023/08/31 02:10:35;;;;;;;3.38;2.05;;;;;;;19.75;80.24;65059.34;5052023;28;20553;-56
2023/08/31 02:13:01;;;;;;;4.95;2.25;;;;;;;19.86;80.36;65070.94;5052136;28;20296;-56
2023/08/31 02:15:27;;;;;;;4.88;2.20;;;;;;;19.79;79.27;65060.66;5052009;28;20288;-55
2023/08/31 02:17:54;;;;;;;5.38;2.05;;;;;;;19.60;79.59;65037.66;5051960;28;20206;-56
2023/08/31 02:20:20;;;;;;;2.55;1.83;;;;;;;19.57;79.38;65039.47;5051973;28;20706;-55
2023/08/31 02:22:46;;;;;;;2.85;1.75;;;;;;;19.61;79.75;65041.34;5051917;28;20202;-55
2023/08/31 02:25:12;;;;;;;3.38;2.28;;;;;;;19.73;80.33;65056.59;5051830;28;20241;-55
2023/08/31 02:27:38;;;;;;;2.63;2.35;;;;;;;19.74;80.00;65055.13;5033921;28;20275;-55
2023/08/31 02:30:05;;;;;;;4.13;2.40;;;;;;;19.66;80.69;65046.28;5051864;28;20201;-60
2023/08/31 02:32:31;;;;;;;5.40;2.50;;;;;;;19.51;81.50;65032.84;5051646;28;20252;-58
2023/08/31 02:34:57;;;;;;;3.38;2.35;;;;;;;19.60;81.45;65037.09;5034196;28;20213;-54
2023/08/31 02:37:22;;;;;;;4.07;2.33;;;;;;;19.60;80.08;65042.78;5050281;28;20212;-54
2023/08/31 02:39:47;;;;;;;3.75;2.05;;;;;;;19.42;81.63;65020.34;5052299;28;20205;-59
2023/08/31 02:42:14;;;;;;;5.00;2.10;;;;;;;19.56;81.74;65037.81;5051745;28;20688;-55
2023/08/31 02:44:39;;;;;;;3.38;1.98;;;;;;;19.46;82.60;65026.75;5051760;28;20216;-55
2023/08/31 02:47:05;;;;;;;5.38;2.20;;;;;;;19.47;83.09;65025.88;5051597;28;20209;-55
2023/08/31 02:49:30;;;;;;;4.90;2.28;;;;;;;19.57;81.81;65036.94;5051584;28;20190;-55
2023/08/31 02:51:56;;;;;;;7.88;2.47;;;;;;;19.58;82.69;65038.03;5051577;28;20217;-55
2023/08/31 02:54:22;;;;;;;4.53;2.25;;;;;;;19.55;82.25;65034.72;5051977;28;20601;-55
2023/08/31 02:56:48;;;;;;;3.70;2.22;;;;;;;19.59;82.92;65036.56;5051576;28;20587;-55
2023/08/31 02:59:13;;;;;;;3.85;2.20;;;;;;;19.60;82.36;65037.66;5051795;28;20198;-56
2023/08/31 03:01:39;;;;;;;4.10;2.35;;;;;;;19.66;82.21;65046.28;5051757;28;20295;-56
2023/08/31 03:04:05;;;;;;;5.15;2.83;;;;;;;19.36;84.31;65013.72;5051675;28;20198;-55
2023/08/31 03:06:32;;;;;;;8.70;3.75;;;;;;;19.43;83.82;65024.03;5051680;28;20225;-55
2023/08/31 03:08:58;;;;;;;8.02;4.70;;;;;;;19.42;83.31;65017.25;5051325;28;20212;-55
2023/08/31 03:11:23;;;;;;;5.95;4.05;;;;;;;19.31;84.76;65010.72;5051662;28;20213;-55
2023/08/31 03:13:49;;;;;;;5.30;2.30;;;;;;;19.27;84.69;65004.31;5051493;28;20228;-55
2023/08/31 03:16:14;;;;;;;5.93;2.83;;;;;;;19.35;85.13;65009.53;5051307;28;20634;-54
2023/08/31 03:18:40;;;;;;;6.30;2.15;;;;;;;19.41;83.68;65021.81;5051310;28;20216;-56
2023/08/31 03:21:05;;;;;;;5.03;2.20;;;;;;;19.50;83.37;65028.63;5051174;28;20304;-55
2023/08/31 03:23:31;;;;;;;4.30;2.55;;;;;;;19.60;83.09;65039.66;5051153;28;20255;-54
2023/08/31 03:25:57;;;;;;;7.72;2.75;;;;;;;19.58;83.57;65040.03;5051093;28;20757;-55
2023/08/31 03:28:22;;;;;;;3.97;2.38;;;;;;;19.75;82.94;65056.81;5051104;28;20194;-56
2023/08/31 03:30:55;;;;;;;8.60;2.70;;;;;;;19.59;83.79;65041.13;5050985;28;20217;-54
2023/08/31 03:33:21;;;;;;;6.40;2.90;;;;;;;19.57;84.65;65036.94;5050900;28;20220;-54
2023/08/31 03:35:47;;;;;;;2.60;1.83;;;;;;;19.30;84.23;65007.09;5051120;28;20188;-56
2023/08/31 03:38:12;;;;;;;5.65;2.50;;;;;;;19.08;84.74;64983.34;5050888;28;20664;-55
2023/08/31 03:40:38;;;;;;;4.65;2.40;;;;;;;18.92;85.72;64965.16;5050774;28;20209;-59
2023/08/31 03:43:03;;;;;;;5.60;2.53;;;;;;;18.82;86.66;64954.13;5050986;28;20213;-54
2023/08/31 03:45:29;;;;;;;5.55;2.70;;;;;;;18.75;88.09;64946.38;5050757;28;20286;-54
2023/08/31 03:47:54;;;;;;;7.88;2.17;;;;;;;18.94;88.02;64967.34;5050662;28;20286;-54
2023/08/31 03:50:20;;;;;;;8.07;2.75;;;;;;;18.98;88.16;64974.31;5055901;28;20221;-54
2023/08/31 03:52:46;;;;;;;6.82;2.95;;;;;;;18.89;88.27;64964.94;5054643;28;20288;-52
2023/08/31 03:55:11;;;;;;;8.55;3.10;;;;;;;18.71;89.91;64944.53;5037411;28;20205;-53
2023/08/31 03:57:37;;;;;;;6.32;3.13;;;;;;;18.88;89.44;64963.28;5054799;28;20588;-53
2023/08/31 04:00:09;;;;;;;6.15;2.97;;;;;;;18.78;88.23;64950.25;5036400;28;20206;-52
2023/08/31 04:02:35;;;;;;;5.75;2.90;;;;;;;18.52;90.18;64921.00;5051959;28;20267;-56
2023/08/31 04:05:01;;;;;;;8.55;3.45;;;;;;;18.52;90.78;64923.56;5053280;28;20249;-57
2023/08/31 04:07:27;;;;;;;6.15;2.55;;;;;;;18.66;86.03;64936.47;5052029;28;20304;-53
2023/08/31 04:09:52;;;;;;;4.47;2.70;;;;;;;18.56;87.11;64925.44;5033331;28;20686;-54
2023/08/31 04:12:19;;;;;;;4.03;2.20;;;;;;;18.78;86.11;64952.25;5050620;28;20221;-52
2023/08/31 04:14:44;;;;;;;5.25;2.50;;;;;;;18.95;84.66;64971.00;5051092;28;20202;-54
2023/08/31 04:17:10;;;;;;;5.97;2.65;;;;;;;19.06;83.99;64983.72;5050715;28;20212;-54
2023/08/31 04:19:37;;;;;;;5.68;2.70;;;;;;;19.18;83.39;64996.94;5050458;28;20670;-54
2023/08/31 04:22:04;;;;;;;5.90;2.53;;;;;;;19.27;83.57;65003.75;5049616;28;20213;-55
2023/08/31 04:24:30;;;;;;;6.13;2.70;;;;;;;19.19;83.37;64994.94;5050759;28;20600;-58
2023/08/31 04:26:55;;;;;;;6.50;2.50;;;;;;;19.07;85.02;64981.69;5049647;28;20600;-52
2023/08/31 04:29:21;;;;;;;7.40;2.63;;;;;;;18.93;86.83;64966.25;5050411;28;20339;-52
2023/08/31 04:31:46;;;;;;;4.35;2.33;;;;;;;19.21;83.75;64999.69;5050082;28;20283;-52
2023/08/31 04:34:12;;;;;;;10.02;2.05;;;;;;;19.15;81.60;64987.97;5050852;28;20264;-52
2023/08/31 04:36:37;;;;;;;6.47;2.40;;;;;;;19.08;81.15;64985.34;5050443;28;20579;-53
2023/08/31 04:39:04;;;;;;;4.53;1.90;;;;;;;19.00;82.19;64976.53;5050596;28;20201;-55
2023/08/31 04:41:30;;;;;;;6.10;2.42;;;;;;;18.88;82.46;64960.72;5050243;28;20313;-55
2023/08/31 04:43:56;;;;;;;4.47;2.30;;;;;;;18.88;82.56;64960.72;5033694;28;20276;-54
2023/08/31 04:46:21;;;;;;;3.10;2.28;;;;;;;18.91;82.99;64964.03;5050156;28;20210;-52
2023/08/31 04:48:46;;;;;;;10.45;2.58;;;;;;;18.98;82.52;64974.31;5050692;28;20194;-55
2023/08/31 04:51:50;;;;;;;4.55;2.20;;;;;;;18.87;83.40;64962.16;5050333;28;20213;-54
2023/08/31 04:54:16;;;;;;;4.95;2.63;;;;;;;18.83;83.37;64957.75;4969518;28;20314;-56
2023/08/31 04:56:42;;;;;;;4.20;2.00;;;;;;;18.99;82.25;64975.41;4970033;28;20208;-52
2023/08/31 04:59:07;;;;;;;3.25;2.15;;;;;;;19.05;82.21;64982.59;5005884;28;20245;-51
2023/08/31 05:01:32;;;;;;;6.60;2.85;;;;;;;18.96;82.70;64969.56;5032996;28;20240;-53
2023/08/31 05:03:58;;;;;;;4.80;2.10;;;;;;;18.95;82.77;64965.88;5050287;28;20209;-54
2023/08/31 05:06:26;;;;;;;4.85;2.10;;;;;;;19.01;82.67;64975.63;5032053;28;20236;-54
2023/08/31 05:08:51;;;;;;;3.90;2.30;;;;;;;19.15;81.86;64990.50;5050612;28;20223;-55
2023/08/31 05:11:17;;;;;;;4.53;2.38;;;;;;;19.20;81.05;64994.03;5051122;28;20201;-54
2023/08/31 05:13:43;;;;;;;6.72;2.10;;;;;;;19.25;80.65;65002.09;5050494;28;20201;-55
2023/08/31 05:16:09;;;;;;;5.22;2.67;;;;;;;19.18;81.43;64991.28;5049499;28;20233;-55
2023/08/31 05:18:35;;;;;;;4.43;2.10;;;;;;;19.34;83.00;65008.41;5049747;28;20208;-55
2023/08/31 05:21:02;;;;;;;3.15;2.00;;;;;;;19.42;79.93;65017.25;5050720;28;20258;-51
2023/08/31 05:23:27;;;;;;;8.68;2.78;;;;;;;19.55;79.50;65034.72;5049924;28;20208;-53
2023/08/31 05:25:53;;;;;;;10.45;3.08;;;;;;;19.90;86.14;65073.34;5032059;28;20210;-54
2023/08/31 05:28:18;;;;;;;4.53;2.25;;;;;;;20.05;82.90;65089.94;5049723;28;20547;-51
2023/08/31 05:30:57;;;;;;;5.22;2.88;;;;;;;20.38;94.23;65125.31;5050623;28;20197;-54
2023/08/31 05:33:25;;;;;;;6.78;3.35;;;;;;;20.74;87.89;65162.53;5050582;28;20508;-56
2023/08/31 05:35:51;;;;;;;7.25;3.28;;;;;;;21.00;87.09;65193.28;5034981;28;20213;-51
2023/08/31 05:38:16;;;;;;;7.72;3.33;;;;;;;21.21;82.94;65214.50;5036004;28;20193;-53
2023/08/31 05:40:45;;;;;;;5.72;3.00;;;;;;;21.50;79.34;65246.59;5053777;28;20598;-51
2023/08/31 05:43:12;;;;;;;6.72;2.58;;;;;;;21.33;75.93;65227.78;5051939;28;20209;-50
2023/08/31 05:45:37;;;;;;;5.45;2.10;;;;;;;21.41;72.35;65236.63;5051381;28;20217;-57
2023/08/31 05:48:03;;;;;;;6.35;2.60;;;;;;;21.46;73.52;65241.59;5051831;28;20213;-52
2023/08/31 05:50:30;;;;;;;4.70;2.47;;;;;;;21.47;72.05;65245.28;5052004;28;20870;-58
2023/08/31 05:52:55;;;;;;;3.63;2.17;;;;;;;21.49;72.25;65244.94;5051822;28;20198;-52
2023/08/31 05:55:21;;;;;;;5.07;2.33;;;;;;;21.60;76.55;65260.22;5051383;28;20271;-53
2023/08/31 05:57:47;;;;;;;5.97;2.47;;;;;;;21.93;76.28;65295.63;5051459;28;20255;-52
2023/08/31 06:00:12;;;;;;;4.47;2.53;;;;;;;22.64;71.88;65374.25;5052658;28;20206;-52
2023/08/31 06:02:38;;;;;;;6.75;2.80;;;;;;;23.22;68.73;65438.50;5052692;28;20209;-54
2023/08/31 06:05:04;;;;;;;5.95;2.92;;;;;;;23.31;68.34;65448.47;5053114;28;20675;-57
2023/08/31 06:07:30;;;;;;;10.18;4.70;;;;;;;23.82;77.47;65507.03;5052928;28;20259;-53
2023/08/31 06:09:56;;;;;;;15.82;4.60;;;;;;;23.76;76.01;65497.22;5052878;28;20279;-51
2023/08/31 06:12:22;;;;;;;9.52;3.88;;;;;;;23.75;73.61;65493.56;5052195;28;20213;-52
2023/08/31 06:14:47;;;;;;;13.88;5.40;;;;;;;23.56;69.81;65477.66;5052382;28;20201;-54
2023/08/31 06:17:13;;;;;;;14.35;4.43;;;;;;;23.07;69.75;65421.88;5050824;28;20286;-51
2023/08/31 06:19:40;;;;;;;11.52;3.92;;;;;;;22.36;75.24;65343.78;5052765;28;20714;-51
2023/08/31 06:22:05;;;;;;;12.30;4.30;;;;;;;22.17;80.09;65320.19;5034429;28;20296;-60
2023/08/31 06:24:32;;;;;;;11.57;4.50;;;;;;;22.18;76.76;65325.88;5052277;28;20662;-55
2023/08/31 06:26:58;;;;;;;7.70;3.67;;;;;;;22.21;79.06;65326.63;5052044;28;20275;-55
2023/08/31 06:29:24;;;;;;;7.55;3.10;;;;;;;22.17;72.70;65320.19;5052299;28;20349;-56
2023/08/31 06:31:50;;;;;;;9.07;3.35;;;;;;;22.21;70.78;65326.63;5033902;28;20634;-57
2023/08/31 06:34:15;;;;;;;5.97;3.10;;;;;;;22.30;73.23;65334.03;5051706;28;20197;-54
2023/08/31 06:36:40;;;;;;;7.93;3.22;;;;;;;22.28;77.49;65331.81;5051684;28;20232;-55
2023/08/31 06:39:07;;;;;;;6.68;3.70;;;;;;;22.34;75.00;65343.59;5052168;28;20238;-56
2023/08/31 06:41:33;;;;;;;11.40;3.22;;;;;;;22.46;76.72;65356.88;5051697;28;20205;-56
2023/08/31 06:43:59;;;;;;;12.20;3.72;;;;;;;22.61;75.62;65368.34;5051947;28;20554;-52
2023/08/31 06:46:24;;;;;;;7.35;3.25;;;;;;;22.69;72.07;65377.22;5041801;22;20233;-52
2023/08/31 06:48:50;;;;;;;13.02;4.05;;;;;;;23.02;68.05;65416.34;5051431;28;20236;-52
2023/08/31 06:51:15;;;;;;;8.85;3.35;;;;;;;22.87;72.07;65399.72;5047594;28;20664;-51
2023/08/31 06:53:44;;;;;;;5.30;3.53;;;;;;;22.94;73.63;65404.34;5031543;28;20210;-52
2023/08/31 06:56:09;;;;;;;8.25;2.83;;;;;;;23.07;72.57;65421.88;5046971;28;20284;-52
2023/08/31 06:58:35;;;;;;;2.58;1.70;;;;;;;23.21;62.68;65434.25;5031519;28;20569;-52
2023/08/31 07:01:05;;;;;;;4.10;2.10;;;;;;;23.12;68.43;65424.28;5031405;28;20688;-52
2023/08/31 07:03:31;;;;;;;8.68;2.83;;;;;;;23.08;68.60;65422.44;5031635;28;20206;-51
2023/08/31 07:05:57;;;;;;;6.10;2.40;;;;;;;23.12;62.96;65427.41;5031264;28;20593;-55
2023/08/31 07:08:23;;;;;;;4.35;2.10;;;;;;;23.13;60.98;65431.09;5031628;28;20268;-54
2023/08/31 07:10:50;;;;;;;8.82;2.65;;;;;;;23.05;61.57;65419.66;5031440;28;20205;-51
2023/08/31 07:13:15;;;;;;;5.88;2.17;;;;;;;22.90;64.41;65400.47;5031456;28;20296;-52
2023/08/31 07:15:41;;;;;;;5.00;2.70;;;;;;;23.04;66.60;65415.97;5031364;28;20229;-52
2023/08/31 07:18:07;;;;;;;5.07;2.67;;;;;;;23.18;66.68;65431.50;5031638;28;20309;-51
2023/08/31 07:20:33;;;;;;;5.78;2.78;;;;;;;23.43;63.28;65461.22;5031557;28;20208;-54
2023/08/31 07:22:59;;;;;;;5.15;2.72;;;;;;;23.58;60.92;65477.84;5031172;28;20718;-53
2023/08/31 07:25:28;;;;;;;5.30;2.53;;;;;;;23.44;67.94;65459.19;5031857;28;20218;-51
2023/08/31 07:27:53;;;;;;;9.82;3.35;;;;;;;23.53;62.41;65472.31;5031131;28;20213;-52
2023/08/31 07:30:19;;;;;;;8.25;3.03;;;;;;;23.59;61.88;65475.84;5029142;28;20275;-50
2023/08/31 07:32:44;;;;;;;4.50;2.20;;;;;;;23.70;63.84;65488.00;5031324;28;20293;-52
2023/08/31 07:35:10;;;;;;;9.13;2.85;;;;;;;23.76;63.34;65494.66;5031376;28;20728;-56
2023/08/31 07:37:37;;;;;;;6.57;3.15;;;;;;;23.93;63.73;65514.06;5015675;28;20218;-51
2023/08/31 07:40:08;;;;;;;7.80;4.20;;;;;;;24.10;59.37;65529.78;5029104;28;20202;-52
2023/08/31 07:42:34;;;;;;;5.95;2.70;;;;;;;24.26;58.53;65549.56;5029594;28;20213;-52
2023/08/31 07:44:59;;;;;;;8.38;2.67;;;;;;;24.39;59.48;65567.13;5028503;28;20586;-52
2023/08/31 07:47:25;;;;;;;5.85;3.50;;;;;;;24.55;60.88;65582.28;5028740;28;20348;-52
2023/08/31 07:49:51;;;;;;;5.20;2.63;;;;;;;24.64;56.31;65594.84;5027461;28;20214;-52
2023/08/31 07:52:17;;;;;;;8.68;4.10;;;;;;;24.66;60.16;65593.94;5029438;28;20226;-56
2023/08/31 07:54:42;;;;;;;11.27;7.00;;;;;;;24.73;59.15;65602.25;5030806;28;20210;-50
2023/08/31 07:57:08;;;;;;;14.65;5.68;;;;;;;24.80;59.05;65610.03;5029497;28;20601;-51
2023/08/31 07:59:33;;;;;;;5.25;2.22;;;;;;;25.06;55.86;65638.31;5030662;28;20233;-51
2023/08/31 08:01:59;;;;;;;9.02;2.70;;;;;;;25.07;58.21;65636.31;5030537;28;20209;-52
2023/08/31 08:04:25;;;;;;;9.15;5.28;;;;;;;25.03;60.04;65635.00;5045868;28;20300;-54
2023/08/31 08:06:52;;;;;;;14.23;3.92;;;;;;;25.29;58.15;65663.31;5029446;28;20214;-51
2023/08/31 08:09:17;;;;;;;7.53;2.40;;;;;;;25.54;53.48;65691.06;5029283;28;20206;-52
2023/08/31 08:11:43;;;;;;;9.73;4.95;;;;;;;25.36;55.69;65671.63;5030620;28;20218;-52
2023/08/31 08:14:09;;;;;;;6.18;2.30;;;;;;;25.36;56.24;65671.63;5030585;28;20258;-51
2023/08/31 08:16:35;;;;;;;9.77;2.78;;;;;;;25.32;56.78;65664.59;5031384;28;20234;-56
2023/08/31 08:19:01;;;;;;;8.60;2.75;;;;;;;25.34;54.47;65669.41;5030720;28;20216;-52
2023/08/31 08:21:26;;;;;;;14.60;3.78;;;;;;;25.50;54.02;65686.63;5030466;28;20301;-52
2023/08/31 08:23:52;;;;;;;7.03;2.72;;;;;;;25.21;54.27;65657.00;5030670;28;20194;-52
2023/08/31 08:26:18;;;;;;;8.88;3.53;;;;;;;25.19;55.47;65652.19;5030273;28;20692;-51
2023/08/31 08:28:43;;;;;;;5.22;2.70;;;;;;;25.32;55.86;65666.63;5030581;28;20233;-52
2023/08/31 08:31:08;;;;;;;4.82;2.35;;;;;;;25.66;56.21;65704.38;5031043;28;20697;-57
2023/08/31 08:33:34;;;;;;;6.50;3.25;;;;;;;25.84;56.11;65721.25;5030972;28;20198;-54
2023/08/31 08:36:01;;;;;;;6.80;3.22;;;;;;;25.91;50.51;65731.59;5046172;28;20210;-54
2023/08/31 08:38:27;;;;;;;6.28;4.20;;;;;;;25.64;44.53;65699.56;5030554;28;20206;-52
2023/08/31 08:40:54;;;;;;;5.95;3.70;;;;;;;25.60;47.23;65697.72;5030867;28;20676;-52
2023/08/31 08:43:25;;;;;;;5.65;3.33;;;;;;;25.69;42.52;65708.25;5030366;28;20660;-55
2023/08/31 08:45:53;;;;;;;6.20;4.03;;;;;;;25.63;41.84;65701.59;5029260;28;20230;-54
2023/08/31 08:48:21;;;;;;;8.07;4.13;;;;;;;25.52;44.35;65686.25;5030439;28;20194;-55
2023/08/31 08:50:48;;;;;;;7.90;4.05;;;;;;;25.86;45.43;65726.59;5029209;28;20214;-58
2023/08/31 08:53:15;;;;;;;5.88;3.58;;;;;;;26.34;41.61;65777.34;5029188;28;20711;-56
2023/08/31 08:55:43;;;;;;;6.75;4.35;;;;;;;26.23;41.10;65767.72;5030020;28;20210;-53
2023/08/31 08:58:09;;;;;;;4.63;3.83;;;;;;;26.01;40.69;65740.09;5029880;28;20229;-55
2023/08/31 09:00:42;;;;;;;5.20;3.63;;;;;;;25.96;40.04;65735.09;5030305;28;20276;-52
2023/08/31 09:03:08;;;;;;;4.32;3.38;;;;;;;26.00;40.26;65741.59;5030318;28;20214;-55
2023/08/31 09:05:34;;;;;;;10.10;3.40;;;;;;;25.92;39.23;65730.13;5030783;28;20316;-52
2023/08/31 09:08:12;;;;;;;5.60;3.88;;;;;;;25.89;38.50;65726.78;5032508;28;20296;-53
2023/08/31 09:10:43;;;;;;;9.30;4.18;;;;;;;26.32;38.50;65777.16;5032972;28;20657;-53
2023/08/31 09:13:10;;;;;;;6.25;5.20;;;;;;;26.40;39.21;65784.00;5033980;28;20601;-52
2023/08/31 09:15:38;;;;;;;7.97;5.05;;;;;;;26.47;37.88;65793.81;5033699;28;20232;-55
2023/08/31 09:18:04;;;;;;;4.78;4.30;;;;;;;27.01;37.49;65853.28;5033671;28;20274;-52
2023/08/31 09:20:30;;;;;;;5.45;3.83;;;;;;;26.85;37.25;65836.06;5034105;28;20209;-53
2023/08/31 09:22:56;;;;;;;9.18;4.57;;;;;;;26.83;37.08;65833.28;5033772;28;20754;-52
2023/08/31 09:25:21;;;;;;;8.60;4.50;;;;;;;26.97;36.46;65848.81;5033148;28;20228;-53
2023/08/31 09:27:48;;;;;;;5.60;4.05;;;;;;;26.83;36.34;65833.81;5033493;28;20667;-53
2023/08/31 09:30:14;;;;;;;4.85;3.70;;;;;;;26.71;36.69;65820.50;5033380;28;20280;-62
2023/08/31 09:32:41;;;;;;;6.53;3.70;;;;;;;27.19;36.63;65873.31;5033075;28;20683;-53
2023/08/31 09:35:11;;;;;;;4.78;3.42;;;;;;;27.73;35.98;65933.38;5033331;28;20202;-54
2023/08/31 09:37:36;;;;;;;6.25;4.05;;;;;;;27.70;36.38;65927.44;5033820;28;20675;-54
2023/08/31 09:40:05;;;;;;;6.53;3.65;;;;;;;27.54;36.90;65909.06;5033465;28;20197;-53
2023/08/31 09:42:38;;;;;;;5.80;4.00;;;;;;;27.39;37.53;65893.50;5033442;28;20206;-54
2023/08/31 09:45:04;;;;;;;6.93;3.40;;;;;;;27.29;37.24;65881.84;5033465;28;20222;-51
2023/08/31 09:47:30;;;;;;;4.68;3.30;;;;;;;28.19;38.04;65981.97;5033169;28;20210;-52
2023/08/31 09:49:58;;;;;;;4.97;3.22;;;;;;;29.09;37.52;66083.09;5033066;28;20296;-53
2023/08/31 09:52:25;;;;;;;7.53;4.00;;;;;;;27.95;36.07;65963.03;5034506;28;20218;-54
2023/08/31 09:54:53;;;;;;;6.15;3.60;;;;;;;27.45;37.46;65904.25;5031733;28;20271;-52
2023/08/31 09:57:20;;;;;;;5.10;3.88;;;;;;;27.41;35.23;65897.78;5033487;28;20213;-56
2023/08/31 09:59:46;;;;;;;5.90;4.15;;;;;;;27.91;36.18;65955.97;5032979;28;20677;-52
2023/08/31 10:02:13;;;;;;;6.50;4.70;;;;;;;28.15;36.17;65976.94;5032418;28;20351;-51
2023/08/31 10:04:39;;;;;;;6.57;4.25;;;;;;;27.53;37.75;65910.56;5034135;28;20281;-54
2023/08/31 10:07:19;;;;;;;6.53;4.03;;;;;;;27.04;37.25;65857.19;5033702;28;20272;-55
2023/08/31 10:09:48;;;;;;;6.13;4.40;;;;;;;26.62;38.88;65810.47;5029888;28;20218;-51
2023/08/31 10:12:15;;;;;;;4.78;3.85;;;;;;;26.22;38.60;65769.16;5031847;28;20213;-51
2023/08/31 10:14:41;;;;;;;4.05;3.45;;;;;;;26.28;38.60;65772.72;5031224;28;20206;-53
2023/08/31 10:17:07;;;;;;;5.57;3.88;;;;;;;26.62;38.03;65810.47;5031897;28;20217;-51
2023/08/31 10:19:33;;;;;;;5.68;3.88;;;;;;;26.21;38.23;65768.06;5030724;28;20206;-52
2023/08/31 10:22:01;;;;;;;4.32;3.60;;;;;;;26.36;38.39;65782.13;5033653;28;20206;-53
2023/08/31 10:25:08;;;;;;;7.15;4.05;;;;;;;26.34;38.96;65777.34;5032471;28;20293;-56
2023/08/31 10:27:41;;;;;;;6.93;4.38;;;;;;;26.10;39.26;65753.25;5047501;28;20264;-53
2023/08/31 10:30:27;;;;;;;7.45;4.05;;;;;;;26.08;38.24;65750.50;5032176;28;20206;-53
2023/08/31 10:33:07;;;;;;;6.68;4.30;;;;;;;25.95;38.10;65736.59;5031197;28;20202;-53
2023/08/31 10:35:54;;;;;;;7.38;4.28;;;;;;;25.69;37.70;65707.72;5030929;28;20229;-53
2023/08/31 10:38:31;;;;;;;6.60;4.70;;;;;;;25.60;37.97;65697.72;5031818;28;20659;-54
2023/08/31 10:41:02;;;;;;;7.10;3.97;;;;;;;25.51;37.91;65685.16;5032129;28;20218;-54
2023/08/31 10:43:58;;;;;;;4.00;3.35;;;;;;;25.49;37.74;65685.53;5030800;28;20301;-58
2023/08/31 10:46:41;;;;;;;5.30;3.85;;;;;;;25.53;38.04;65689.97;5031588;28;20246;-53
2023/08/31 10:49:09;;;;;;;5.68;3.78;;;;;;;25.56;38.27;65693.84;5031977;28;20289;-53
2023/08/31 10:51:37;;;;;;;6.32;3.78;;;;;;;25.92;37.35;65735.84;5031922;28;20276;-57
2023/08/31 10:54:15;;;;;;;5.65;3.75;;;;;;;26.06;37.51;65746.22;5030495;28;20652;-53
2023/08/31 10:59:50;;;;;;;5.75;3.63;;;;;;;26.82;36.91;65835.31;5031721;28;20210;-54
2023/08/31 11:02:35;;;;;;;5.05;3.85;;;;;;;27.45;35.76;65902.22;5030206;28;20224;-56
2023/08/31 11:05:19;;;;;;;4.47;3.63;;;;;;;27.47;35.42;65904.47;5031646;28;20214;-58
2023/08/31 11:07:47;;;;;;;5.68;4.28;;;;;;;27.12;36.15;65868.09;5031906;28;20218;-52
2023/08/31 11:10:19;;;;;;;6.57;4.38;;;;;;;27.14;36.40;65865.16;5031802;28;20214;-53
2023/08/31 11:12:50;;;;;;;6.63;4.00;;;;;;;26.75;35.25;65824.94;5031621;28;20214;-53
2023/08/31 11:15:18;;;;;;;4.82;3.70;;;;;;;26.78;35.52;65827.72;5031550;28;20210;-52
2023/08/31 11:17:46;;;;;;;4.47;3.78;;;;;;;26.80;35.10;65827.34;5031383;28;20206;-54
2023/08/31 11:20:22;;;;;;;6.43;4.18;;;;;;;26.63;35.65;65812.16;5030086;28;20206;-52
2023/08/31 11:22:54;;;;;;;5.80;3.95;;;;;;;26.39;36.26;65785.47;5031662;28;20217;-54
2023/08/31 11:25:24;;;;;;;4.00;3.47;;;;;;;26.32;36.36;65780.28;5031249;28;20295;-53
2023/08/31 11:28:16;;;;;;;4.15;3.38;;;;;;;26.98;37.31;65847.38;5029934;28;20206;-53
2023/08/31 11:30:44;;;;;;;3.90;2.92;;;;;;;27.90;35.59;65952.25;5028444;28;20214;-58
2023/08/31 11:33:11;;;;;;;8.38;3.95;;;;;;;28.29;35.49;65992.53;5031255;28;20716;-53
2023/08/31 11:35:39;;;;;;;6.03;3.85;;;;;;;29.20;34.67;66095.91;5031155;28;20209;-54
2023/08/31 11:38:05;;;;;;;5.57;3.50;;;;;;;28.59;34.99;66027.97;5030961;28;20210;-53
2023/08/31 11:40:31;;;;;;;7.15;3.20;;;;;;;27.97;34.86;65962.13;5029657;28;20312;-53